Time;durP1;ratioP1;P1;durP2;ratioP2;P2;SDS_P1;SDS_P2;PMS_P1;PMS_P2;Temp;Humidity;BMP_temperature;BMP_pressure;BME280_temperature;BME280_humidity;BME280_pressure;Samples;Min_cycle;Max_cycle;Signal;HPM_P1;HPM_P2
2022/11/07 00:00:05;;;;;;;;;;;;;;;;;;4968118;28;19930;-56
2022/11/07 00:02:30;;;;;;;;;;;;;;;;;;4969648;28;20371;-56
2022/11/07 00:04:55;;;;;;;;;;;;;;;;;;4973526;28;19979;-55
2022/11/07 00:07:21;;;;;;;;;;;;;;;;;;4974886;28;19974;-55
2022/11/07 00:09:46;;;;;;;;;;;;;;;;;;4959989;28;20075;-56
2022/11/07 00:12:11;;;;;;;;;;;;;;;;;;4965514;28;20376;-55
2022/11/07 00:14:36;;;;;;;;;;;;;;;;;;4962108;28;20005;-56
2022/11/07 00:17:02;;;;;;;;;;;;;;;;;;4970063;28;20287;-57
2022/11/07 00:19:27;;;;;;;;;;;;;;;;;;4961327;28;19923;-56
2022/11/07 00:21:52;;;;;;;;;;;;;;;;;;4963431;28;19922;-55
2022/11/07 00:24:18;;;;;;;;;;;;;;;;;;4962192;28;19918;-56
2022/11/07 00:26:44;;;;;;;;;;;;;;;;;;4961889;28;19922;-55
2022/11/07 00:29:13;;;;;;;;;;;;;;;;;;4964482;28;19925;-56
2022/11/07 00:31:39;;;;;;;;;;;;;;;;;;4964922;28;19999;-55
2022/11/07 00:34:04;;;;;;;;;;;;;;;;;;4958326;28;21610;-57
2022/11/07 00:36:29;;;;;;;;;;;;;;;;;;4965030;28;19941;-56
2022/11/07 00:38:55;;;;;;;;;;;;;;;;;;4961189;28;19918;-56
2022/11/07 00:41:21;;;;;;;;;;;;;;;;;;4968744;28;20457;-57
2022/11/07 00:43:46;;;;;;;;;;;;;;;;;;4965487;28;19950;-56
2022/11/07 00:46:12;;;;;;;;;;;;;;;;;;4971116;28;20015;-57
2022/11/07 00:48:38;;;;;;;;;;;;;;;;;;4974455;28;20047;-55
2022/11/07 00:51:04;;;;;;;;;;;;;;;;;;4973031;28;20070;-54
2022/11/07 00:53:29;;;;;;;;;;;;;;;;;;4960902;28;20001;-56
2022/11/07 00:55:59;;;;;;;;;;;;;;;;;;4966762;28;20008;-56
2022/11/07 00:58:24;;;;;;;;;;;;;;;;;;4955898;28;19923;-56
2022/11/07 01:00:49;;;;;;;;;;;;;;;;;;4954789;28;19979;-56
2022/11/07 01:05:59;;;;;;;;;;;;;;;;;;4952588;28;19926;-56
2022/11/07 01:08:25;;;;;;;;;;;;;;;;;;4958209;28;19961;-56
2022/11/07 01:10:51;;;;;;;;;;;;;;;;;;4955495;28;19972;-55
2022/11/07 01:13:16;;;;;;;;;;;;;;;;;;4954908;28;19925;-56
2022/11/07 01:15:41;;;;;;;;;;;;;;;;;;4958480;28;20265;-56
2022/11/07 01:18:06;;;;;;;;;;;;;;;;;;4963573;28;19925;-56
2022/11/07 01:20:32;;;;;;;;;;;;;;;;;;4967350;28;19929;-56
2022/11/07 01:22:57;;;;;;;;;;;;;;;;;;4962875;28;20009;-56
2022/11/07 01:25:22;;;;;;;;;;;;;;;;;;4968855;28;19918;-56
2022/11/07 01:27:47;;;;;;;;;;;;;;;;;;4959545;28;19992;-55
2022/11/07 01:30:13;;;;;;;;;;;;;;;;;;4959269;28;19919;-55
2022/11/07 01:32:38;;;;;;;;;;;;;;;;;;4956624;28;19919;-55
2022/11/07 01:35:03;;;;;;;;;;;;;;;;;;4963411;28;20279;-56
2022/11/07 01:37:29;;;;;;;;;;;;;;;;;;4968958;28;19918;-56
2022/11/07 01:39:54;;;;;;;;;;;;;;;;;;4962362;28;19929;-56
2022/11/07 01:42:20;;;;;;;;;;;;;;;;;;4965055;28;19930;-56
2022/11/07 01:44:50;;;;;;;;;;;;;;;;;;4965928;28;19941;-56
2022/11/07 01:47:15;;;;;;;;;;;;;;;;;;4961509;28;20436;-55
2022/11/07 01:49:41;;;;;;;;;;;;;;;;;;4968217;28;19975;-56
2022/11/07 01:52:15;;;;;;;;;;;;;;;;;;4970220;28;19918;-56
2022/11/07 01:54:50;;;;;;;;;;;;;;;;;;4958112;28;19919;-56
2022/11/07 01:57:21;;;;;;;;;;;;;;;;;;4958682;28;19918;-55
2022/11/07 01:59:47;;;;;;;;;;;;;;;;;;4961001;28;19928;-56
2022/11/07 02:02:12;;;;;;;;;;;;;;;;;;4951298;28;19918;-56
2022/11/07 02:04:37;;;;;;;;;;;;;;;;;;4954100;28;20272;-56
2022/11/07 02:07:06;;;;;;;;;;;;;;;;;;4963725;28;19941;-56
2022/11/07 02:09:32;;;;;;;;;;;;;;;;;;4958165;28;19919;-56
2022/11/07 02:11:59;;;;;;;;;;;;;;;;;;4960972;28;19918;-56
2022/11/07 02:14:25;;;;;;;;;;;;;;;;;;4966456;28;19918;-56
2022/11/07 02:16:50;;;;;;;;;;;;;;;;;;4966190;28;19940;-56
2022/11/07 02:19:21;;;;;;;;;;;;;;;;;;4976380;28;19929;-56
2022/11/07 02:22:11;;;;;;;;;;;;;;;;;;4961211;28;19918;-57
2022/11/07 02:24:37;;;;;;;;;;;;;;;;;;4957983;28;19965;-55
2022/11/07 02:27:04;;;;;;;;;;;;;;;;;;4959706;28;20393;-57
2022/11/07 02:29:31;;;;;;;;;;;;;;;;;;4964384;28;19926;-56
2022/11/07 02:32:01;;;;;;;;;;;;;;;;;;4968596;28;19922;-56
2022/11/07 02:34:26;;;;;;;;;;;;;;;;;;4967448;28;19918;-57
2022/11/07 02:36:52;;;;;;;;;;;;;;;;;;4972476;28;19922;-56
2022/11/07 02:39:17;;;;;;;;;;;;;;;;;;4965583;28;19945;-56
2022/11/07 02:41:43;;;;;;;;;;;;;;;;;;4966898;28;19958;-55
2022/11/07 02:44:10;;;;;;;;;;;;;;;;;;4968768;28;19925;-56
2022/11/07 02:46:35;;;;;;;;;;;;;;;;;;4961058;28;20013;-56
2022/11/07 02:49:01;;;;;;;;;;;;;;;;;;4972266;28;20012;-57
2022/11/07 02:51:26;;;;;;;;;;;;;;;;;;4969051;28;19941;-56
2022/11/07 02:53:52;;;;;;;;;;;;;;;;;;4964961;28;20380;-56
2022/11/07 02:56:18;;;;;;;;;;;;;;;;;;4964630;28;20395;-57
2022/11/07 02:58:43;;;;;;;;;;;;;;;;;;4963439;28;19971;-56
2022/11/07 03:01:09;;;;;;;;;;;;;;;;;;4960988;28;19929;-56
2022/11/07 03:03:44;;;;;;;;;;;;;;;;;;4959752;28;20047;-56
2022/11/07 03:06:10;;;;;;;;;;;;;;;;;;4959203;28;19922;-56
2022/11/07 03:08:36;;;;;;;;;;;;;;;;;;4956744;28;19927;-56
2022/11/07 03:11:01;;;;;;;;;;;;;;;;;;4962973;28;20294;-56
2022/11/07 03:13:27;;;;;;;;;;;;;;;;;;4965617;28;19919;-56
2022/11/07 03:15:52;;;;;;;;;;;;;;;;;;4965332;28;19922;-57
2022/11/07 03:18:17;;;;;;;;;;;;;;;;;;4956623;28;19926;-55
2022/11/07 03:20:43;;;;;;;;;;;;;;;;;;4963359;28;20013;-56
2022/11/07 03:23:08;;;;;;;;;;;;;;;;;;4960170;28;19925;-57
2022/11/07 03:25:33;;;;;;;;;;;;;;;;;;4980497;28;19922;-55
2022/11/07 03:27:59;;;;;;;;;;;;;;;;;;4974872;28;20421;-56
2022/11/07 03:30:24;;;;;;;;;;;;;;;;;;4963978;28;20051;-56
2022/11/07 03:32:52;;;;;;;;;;;;;;;;;;4963765;28;20541;-56
2022/11/07 03:35:18;;;;;;;;;;;;;;;;;;4968531;28;19918;-56
2022/11/07 03:37:44;;;;;;;;;;;;;;;;;;4970503;28;19922;-56
2022/11/07 03:40:10;;;;;;;;;;;;;;;;;;4966066;28;20384;-56
2022/11/07 03:42:39;;;;;;;;;;;;;;;;;;4962452;28;19918;-55
2022/11/07 03:45:05;;;;;;;;;;;;;;;;;;4969061;28;19928;-56
2022/11/07 03:47:32;;;;;;;;;;;;;;;;;;4969584;28;19921;-56
2022/11/07 03:49:57;;;;;;;;;;;;;;;;;;4969235;28;19918;-56
2022/11/07 03:52:23;;;;;;;;;;;;;;;;;;4966907;28;20001;-56
2022/11/07 03:54:48;;;;;;;;;;;;;;;;;;4958316;28;19918;-55
2022/11/07 03:57:13;;;;;;;;;;;;;;;;;;4966526;28;20349;-56
2022/11/07 03:59:38;;;;;;;;;;;;;;;;;;4959474;28;19923;-56
2022/11/07 04:02:04;;;;;;;;;;;;;;;;;;4956644;28;19988;-57
2022/11/07 04:04:29;;;;;;;;;;;;;;;;;;4965028;28;19918;-55
2022/11/07 04:06:54;;;;;;;;;;;;;;;;;;4952864;28;20030;-56
2022/11/07 04:09:20;;;;;;;;;;;;;;;;;;4951238;28;19991;-56
2022/11/07 04:17:19;;;;;;;;;;;;;;;;;;4958174;28;19924;-56
2022/11/07 04:19:48;;;;;;;;;;;;;;;;;;4960026;28;20296;-56
2022/11/07 04:22:13;;;;;;;;;;;;;;;;;;4962612;28;19926;-56
2022/11/07 04:24:40;;;;;;;;;;;;;;;;;;4959020;28;20013;-56
2022/11/07 04:29:49;;;;;;;;;;;;;;;;;;4962947;28;20355;-56
2022/11/07 04:32:14;;;;;;;;;;;;;;;;;;4964462;28;19961;-57
2022/11/07 04:34:39;;;;;;;;;;;;;;;;;;4965689;28;19918;-57
2022/11/07 04:37:04;;;;;;;;;;;;;;;;;;4962546;28;19926;-57
2022/11/07 04:39:30;;;;;;;;;;;;;;;;;;4957776;28;20013;-56
2022/11/07 04:41:55;;;;;;;;;;;;;;;;;;4962971;28;19921;-57
2022/11/07 04:44:21;;;;;;;;;;;;;;;;;;4957465;28;20406;-57
2022/11/07 04:46:46;;;;;;;;;;;;;;;;;;4962691;28;19930;-57
2022/11/07 04:49:14;;;;;;;;;;;;;;;;;;4963041;28;19925;-55
2022/11/07 04:51:42;;;;;;;;;;;;;;;;;;4963431;28;20015;-56
2022/11/07 04:54:12;;;;;;;;;;;;;;;;;;4965934;28;19918;-56
2022/11/07 04:56:37;;;;;;;;;;;;;;;;;;4964745;28;19961;-57
2022/11/07 04:59:02;;;;;;;;;;;;;;;;;;4959887;28;20003;-56
2022/11/07 05:01:28;;;;;;;;;;;;;;;;;;4953338;28;19919;-56
2022/11/07 05:03:53;;;;;;;;;;;;;;;;;;4963170;28;19933;-56
2022/11/07 05:06:18;;;;;;;;;;;;;;;;;;4958722;28;20588;-55
2022/11/07 05:08:43;;;;;;;;;;;;;;;;;;4964070;28;19922;-57
2022/11/07 05:11:09;;;;;;;;;;;;;;;;;;4964423;28;20406;-56
2022/11/07 05:13:34;;;;;;;;;;;;;;;;;;4960239;28;19922;-56
2022/11/07 05:15:59;;;;;;;;;;;;;;;;;;4957379;28;20017;-56
2022/11/07 05:18:24;;;;;;;;;;;;;;;;;;4957981;28;19925;-56
2022/11/07 05:20:50;;;;;;;;;;;;;;;;;;4967317;28;19983;-57
2022/11/07 05:23:16;;;;;;;;;;;;;;;;;;4954269;28;19925;-59
2022/11/07 05:25:42;;;;;;;;;;;;;;;;;;4961937;28;19956;-59
2022/11/07 05:28:08;;;;;;;;;;;;;;;;;;4961739;28;19961;-58
2022/11/07 05:30:36;;;;;;;;;;;;;;;;;;4965032;28;19926;-59
2022/11/07 05:33:01;;;;;;;;;;;;;;;;;;4958779;28;20303;-58
2022/11/07 05:35:27;;;;;;;;;;;;;;;;;;4956041;28;19925;-59
2022/11/07 05:37:52;;;;;;;;;;;;;;;;;;4964609;28;19941;-59
2022/11/07 05:40:17;;;;;;;;;;;;;;;;;;4963276;28;20546;-59
2022/11/07 05:42:42;;;;;;;;;;;;;;;;;;4958059;28;19918;-59
2022/11/07 05:45:08;;;;;;;;;;;;;;;;;;4967528;28;19926;-59
2022/11/07 05:47:33;;;;;;;;;;;;;;;;;;4960438;28;19965;-59
2022/11/07 05:49:58;;;;;;;;;;;;;;;;;;4970955;28;19937;-59
2022/11/07 05:52:24;;;;;;;;;;;;;;;;;;4965352;28;19922;-60
2022/11/07 05:54:49;;;;;;;;;;;;;;;;;;4970064;28;19918;-59
2022/11/07 05:57:14;;;;;;;;;;;;;;;;;;4963352;28;19919;-59
2022/11/07 05:59:39;;;;;;;;;;;;;;;;;;4965680;28;19929;-59
2022/11/07 06:02:05;;;;;;;;;;;;;;;;;;4970036;28;19919;-60
2022/11/07 06:04:30;;;;;;;;;;;;;;;;;;4967989;28;19925;-59
2022/11/07 06:06:55;;;;;;;;;;;;;;;;;;4971654;28;20025;-59
2022/11/07 06:09:20;;;;;;;;;;;;;;;;;;4973425;28;19928;-59
2022/11/07 06:11:46;;;;;;;;;;;;;;;;;;4970750;28;19979;-59
2022/11/07 06:14:11;;;;;;;;;;;;;;;;;;4958344;28;20303;-59
2022/11/07 06:16:36;;;;;;;;;;;;;;;;;;4967064;28;19997;-60
2022/11/07 06:19:02;;;;;;;;;;;;;;;;;;4969460;28;19917;-59
2022/11/07 06:21:27;;;;;;;;;;;;;;;;;;4968794;28;19994;-58
2022/11/07 06:23:52;;;;;;;;;;;;;;;;;;4964024;28;19930;-59
2022/11/07 06:26:17;;;;;;;;;;;;;;;;;;4958428;28;19918;-59
2022/11/07 06:28:43;;;;;;;;;;;;;;;;;;4958783;28;19925;-59
2022/11/07 06:31:08;;;;;;;;;;;;;;;;;;4955965;28;20572;-59
2022/11/07 06:33:33;;;;;;;;;;;;;;;;;;4952881;28;19945;-59
2022/11/07 06:36:06;;;;;;;;;;;;;;;;;;4954723;28;19918;-59
2022/11/07 06:38:31;;;;;;;;;;;;;;;;;;4950770;28;19922;-58
2022/11/07 06:41:02;;;;;;;;;;;;;;;;;;4949246;28;19949;-57
2022/11/07 06:43:27;;;;;;;;;;;;;;;;;;4949253;28;19973;-58
2022/11/07 06:45:53;;;;;;;;;;;;;;;;;;4950503;28;19966;-58
2022/11/07 06:48:18;;;;;;;;;;;;;;;;;;4954544;28;20431;-58
2022/11/07 06:50:43;;;;;;;;;;;;;;;;;;4963622;28;19922;-59
2022/11/07 06:53:10;;;;;;;;;;;;;;;;;;4966311;28;19984;-58
2022/11/07 06:55:36;;;;;;;;;;;;;;;;;;4958227;28;19919;-59
2022/11/07 06:58:01;;;;;;;;;;;;;;;;;;4965060;28;19918;-58
2022/11/07 07:00:27;;;;;;;;;;;;;;;;;;4954008;28;19926;-58
2022/11/07 07:02:52;;;;;;;;;;;;;;;;;;4955707;28;19926;-58
2022/11/07 07:05:18;;;;;;;;;;;;;;;;;;4949192;28;19919;-59
2022/11/07 07:07:43;;;;;;;;;;;;;;;;;;4956847;28;19918;-58
2022/11/07 07:10:08;;;;;;;;;;;;;;;;;;4968531;28;19971;-59
2022/11/07 07:12:34;;;;;;;;;;;;;;;;;;4965337;28;19944;-58
2022/11/07 07:14:59;;;;;;;;;;;;;;;;;;4969000;28;20009;-58
2022/11/07 07:17:24;;;;;;;;;;;;;;;;;;5003454;28;19916;-58
2022/11/07 07:19:50;;;;;;;;;;;;;;;;;;4975566;28;20329;-58
2022/11/07 07:22:15;;;;;;;;;;;;;;;;;;4958106;28;19918;-58
2022/11/07 07:24:40;;;;;;;;;;;;;;;;;;4972565;28;19926;-53
2022/11/07 07:27:06;;;;;;;;;;;;;;;;;;4966469;28;19922;-58
2022/11/07 07:29:31;;;;;;;;;;;;;;;;;;4963948;28;19918;-58
2022/11/07 07:31:56;;;;;;;;;;;;;;;;;;4965180;28;20410;-57
2022/11/07 07:34:21;;;;;;;;;;;;;;;;;;4964214;28;19927;-59
2022/11/07 07:36:47;;;;;;;;;;;;;;;;;;4962773;28;20403;-60
2022/11/07 07:39:12;;;;;;;;;;;;;;;;;;4959273;28;20017;-58
2022/11/07 07:41:37;;;;;;;;;;;;;;;;;;4958192;28;20005;-58
2022/11/07 07:44:02;;;;;;;;;;;;;;;;;;4960528;28;19919;-58
2022/11/07 07:46:28;;;;;;;;;;;;;;;;;;4961113;28;20341;-58
2022/11/07 07:48:53;;;;;;;;;;;;;;;;;;4956485;28;20334;-58
2022/11/07 07:51:18;;;;;;;;;;;;;;;;;;4950897;28;20460;-58
2022/11/07 07:53:44;;;;;;;;;;;;;;;;;;4956651;28;19922;-57
2022/11/07 07:56:09;;;;;;;;;;;;;;;;;;4959045;28;20026;-58
2022/11/07 07:58:35;;;;;;;;;;;;;;;;;;4959778;28;19926;-58
2022/11/07 08:01:00;;;;;;;;;;;;;;;;;;4957165;28;19937;-58
2022/11/07 08:03:26;;;;;;;;;;;;;;;;;;4956163;28;20384;-56
2022/11/07 08:05:52;;;;;;;;;;;;;;;;;;4954288;28;19922;-57
2022/11/07 08:08:18;;;;;;;;;;;;;;;;;;4959234;28;19925;-57
2022/11/07 08:10:43;;;;;;;;;;;;;;;;;;4960770;28;19923;-58
2022/11/07 08:13:08;;;;;;;;;;;;;;;;;;4969640;28;19924;-58
2022/11/07 08:15:34;;;;;;;;;;;;;;;;;;4957705;28;19925;-57
2022/11/07 08:18:00;;;;;;;;;;;;;;;;;;4957827;28;19961;-58
2022/11/07 08:20:26;;;;;;;;;;;;;;;;;;4959008;28;19935;-58
2022/11/07 08:22:58;;;;;;;;;;;;;;;;;;4958574;28;19918;-58
2022/11/07 08:25:24;;;;;;;;;;;;;;;;;;4961264;28;20414;-58
2022/11/07 08:27:51;;;;;;;;;;;;;;;;;;4950634;28;19918;-56
2022/11/07 08:30:16;;;;;;;;;;;;;;;;;;4958231;28;19918;-57
2022/11/07 08:32:42;;;;;;;;;;;;;;;;;;4956904;28;19925;-57
2022/11/07 08:35:07;;;;;;;;;;;;;;;;;;4962030;28;19918;-57
2022/11/07 08:37:32;;;;;;;;;;;;;;;;;;4961007;28;20384;-57
2022/11/07 08:39:58;;;;;;;;;;;;;;;;;;4966698;28;19929;-56
2022/11/07 08:42:23;;;;;;;;;;;;;;;;;;4960898;28;19918;-57
2022/11/07 08:44:48;;;;;;;;;;;;;;;;;;4956911;28;20013;-57
2022/11/07 08:47:13;;;;;;;;;;;;;;;;;;4955498;28;19918;-58
2022/11/07 08:49:39;;;;;;;;;;;;;;;;;;4955904;28;20270;-58
2022/11/07 08:52:04;;;;;;;;;;;;;;;;;;4958949;28;19922;-58
2022/11/07 08:54:29;;;;;;;;;;;;;;;;;;4955737;28;19918;-57
2022/11/07 08:56:54;;;;;;;;;;;;;;;;;;4955661;28;20376;-57
2022/11/07 08:59:20;;;;;;;;;;;;;;;;;;4951284;28;19923;-59
2022/11/07 09:01:46;;;;;;;;;;;;;;;;;;4949126;28;19926;-59
2022/11/07 09:04:11;;;;;;;;;;;;;;;;;;4953026;28;19922;-59
2022/11/07 09:06:36;;;;;;;;;;;;;;;;;;4960255;28;19918;-59
2022/11/07 09:09:02;;;;;;;;;;;;;;;;;;4950594;28;19954;-59
2022/11/07 09:11:27;;;;;;;;;;;;;;;;;;4952454;28;19919;-59
2022/11/07 09:13:53;;;;;;;;;;;;;;;;;;4949157;28;19927;-59
2022/11/07 09:16:19;;;;;;;;;;;;;;;;;;4951638;28;20372;-59
2022/11/07 09:18:45;;;;;;;;;;;;;;;;;;4956371;28;21056;-57
2022/11/07 09:21:10;;;;;;;;;;;;;;;;;;4955577;28;19996;-59
2022/11/07 09:23:35;;;;;;;;;;;;;;;;;;4962972;28;20299;-59
2022/11/07 09:26:00;;;;;;;;;;;;;;;;;;4973844;28;19918;-57
2022/11/07 09:28:26;;;;;;;;;;;;;;;;;;4967009;28;20416;-59
2022/11/07 09:30:52;;;;;;;;;;;;;;;;;;4952445;28;19937;-59
2022/11/07 09:33:17;;;;;;;;;;;;;;;;;;4958118;28;20479;-58
2022/11/07 09:35:43;;;;;;;;;;;;;;;;;;4963190;28;19970;-59
2022/11/07 09:38:08;;;;;;;;;;;;;;;;;;4963790;28;19961;-59
2022/11/07 09:40:37;;;;;;;;;;;;;;;;;;4967154;28;20414;-58
2022/11/07 09:43:05;;;;;;;;;;;;;;;;;;4958441;28;19929;-59
2022/11/07 09:45:34;;;;;;;;;;;;;;;;;;4954445;28;19919;-59
2022/11/07 09:48:02;;;;;;;;;;;;;;;;;;4956199;28;19926;-59
2022/11/07 09:50:34;;;;;;;;;;;;;;;;;;4953378;28;19937;-59
2022/11/07 09:53:15;;;;;;;;;;;;;;;;;;4953946;28;19918;-58
2022/11/07 09:55:45;;;;;;;;;;;;;;;;;;4951497;28;20574;-58
2022/11/07 09:58:24;;;;;;;;;;;;;;;;;;4960192;28;19918;-59
2022/11/07 10:00:50;;;;;;;;;;;;;;;;;;4960091;28;19929;-59
2022/11/07 10:03:16;;;;;;;;;;;;;;;;;;4956007;28;20311;-59
2022/11/07 10:05:45;;;;;;;;;;;;;;;;;;4970861;28;19917;-59
2022/11/07 10:08:10;;;;;;;;;;;;;;;;;;4955920;28;19922;-59
2022/11/07 10:10:44;;;;;;;;;;;;;;;;;;4958523;28;19934;-59
2022/11/07 10:13:12;;;;;;;;;;;;;;;;;;4957591;28;19918;-59
2022/11/07 10:15:40;;;;;;;;;;;;;;;;;;4962830;28;19956;-58
2022/11/07 10:18:08;;;;;;;;;;;;;;;;;;4954048;28;20017;-59
2022/11/07 10:20:33;;;;;;;;;;;;;;;;;;4957689;28;19958;-59
2022/11/07 10:23:05;;;;;;;;;;;;;;;;;;4961339;28;20411;-59
2022/11/07 10:26:03;;;;;;;;;;;;;;;;;;4962710;28;19975;-58
2022/11/07 10:28:29;;;;;;;;;;;;;;;;;;4945884;28;20342;-59
2022/11/07 10:30:56;;;;;;;;;;;;;;;;;;4961157;28;19930;-59
2022/11/07 10:33:24;;;;;;;;;;;;;;;;;;4972155;28;19997;-59
2022/11/07 10:35:55;;;;;;;;;;;;;;;;;;4965159;28;19926;-57
2022/11/07 10:38:27;;;;;;;;;;;;;;;;;;4965197;28;19921;-56
2022/11/07 10:40:53;;;;;;;;;;;;;;;;;;4963538;28;19929;-58
2022/11/07 10:43:26;;;;;;;;;;;;;;;;;;4958013;28;19915;-59
2022/11/07 10:45:51;;;;;;;;;;;;;;;;;;4966579;28;20017;-57
2022/11/07 10:48:17;;;;;;;;;;;;;;;;;;4958041;28;20010;-58
2022/11/07 10:50:49;;;;;;;;;;;;;;;;;;4965041;28;19995;-58
2022/11/07 10:53:17;;;;;;;;;;;;;;;;;;4962383;28;20470;-58
2022/11/07 10:55:44;;;;;;;;;;;;;;;;;;4962795;28;19918;-57
2022/11/07 10:58:16;;;;;;;;;;;;;;;;;;4960096;28;19919;-57
2022/11/07 11:00:43;;;;;;;;;;;;;;;;;;4967649;28;19918;-57
2022/11/07 11:03:24;;;;;;;;;;;;;;;;;;4955240;28;19961;-58
2022/11/07 11:05:49;;;;;;;;;;;;;;;;;;4958546;28;19919;-58
2022/11/07 11:08:14;;;;;;;;;;;;;;;;;;4955314;28;19929;-58
2022/11/07 11:10:40;;;;;;;;;;;;;;;;;;4949455;28;19925;-58
2022/11/07 11:13:08;;;;;;;;;;;;;;;;;;4960823;28;20315;-58
2022/11/07 11:15:42;;;;;;;;;;;;;;;;;;4952543;28;19925;-57
2022/11/07 11:18:15;;;;;;;;;;;;;;;;;;4957717;28;19929;-58
2022/11/07 11:21:02;;;;;;;;;;;;;;;;;;4953597;28;19944;-58
2022/11/07 11:23:36;;;;;;;;;;;;;;;;;;4958209;28;20353;-57
2022/11/07 11:26:04;;;;;;;;;;;;;;;;;;4958773;28;19962;-58
2022/11/07 11:28:35;;;;;;;;;;;;;;;;;;4956471;28;20370;-57
2022/11/07 11:31:18;;;;;;;;;;;;;;;;;;4957536;28;19927;-57
2022/11/07 11:33:48;;;;;;;;;;;;;;;;;;4954925;28;19925;-58
2022/11/07 11:36:39;;;;;;;;;;;;;;;;;;4959712;28;20299;-59
2022/11/07 11:39:11;;;;;;;;;;;;;;;;;;4955310;28;19922;-57
2022/11/07 11:41:42;;;;;;;;;;;;;;;;;;4963045;28;19926;-57
2022/11/07 11:44:17;;;;;;;;;;;;;;;;;;4957532;28;19922;-58
2022/11/07 11:46:58;;;;;;;;;;;;;;;;;;4956975;28;19988;-58
2022/11/07 11:49:35;;;;;;;;;;;;;;;;;;4958491;28;19931;-58
2022/11/07 11:52:05;;;;;;;;;;;;;;;;;;4961534;28;19918;-53
2022/11/07 11:54:31;;;;;;;;;;;;;;;;;;4963627;28;19957;-57
2022/11/07 11:57:08;;;;;;;;;;;;;;;;;;4954298;28;19973;-60
2022/11/07 11:59:41;;;;;;;;;;;;;;;;;;4953775;28;20396;-58
2022/11/07 12:02:09;;;;;;;;;;;;;;;;;;4953382;28;19919;-58
2022/11/07 12:04:43;;;;;;;;;;;;;;;;;;4956915;28;20300;-57
2022/11/07 12:07:28;;;;;;;;;;;;;;;;;;5145002;27;19919;-58
2022/11/07 12:10:02;;;;;;;;;;;;;;;;;;5124765;28;19923;-57
2022/11/07 12:12:42;;;;;;;;;;;;;;;;;;5125163;28;20385;-59
2022/11/07 12:15:30;;;;;;;;;;;;;;;;;;5130210;27;19916;-59
2022/11/07 12:18:04;;;;;;;;;;;;;;;;;;5115812;28;20385;-60
2022/11/07 12:20:32;;;;;;;;;;;;;;;;;;5124249;27;19916;-60
2022/11/07 12:23:19;;;;;;;;;;;;;;;;;;5124727;28;19919;-58
2022/11/07 12:25:45;;;;;;;;;;;;;;;;;;5124662;28;19924;-58
2022/11/07 12:28:29;;;;;;;;;;;;;;;;;;5126581;27;20514;-58
2022/11/07 12:31:05;;;;;;;;;;;;;;;;;;5126630;28;19935;-58
2022/11/07 12:33:40;;;;;;;;;;;;;;;;;;5119989;27;19919;-54
2022/11/07 12:36:15;;;;;;;;;;;;;;;;;;5126049;27;20006;-54
2022/11/07 12:38:47;;;;;;;;;;;;;;;;;;5122180;28;20002;-58
2022/11/07 12:41:33;;;;;;;;;;;;;;;;;;5125802;28;19920;-58
2022/11/07 12:44:11;;;;;;;;;;;;;;;;;;5125418;27;20010;-58
2022/11/07 12:46:39;;;;;;;;;;;;;;;;;;5121004;28;19919;-58
2022/11/07 12:49:07;;;;;;;;;;;;;;;;;;5120178;27;19971;-58
2022/11/07 12:51:32;;;;;;;;;;;;;;;;;;5124093;27;20003;-58
2022/11/07 12:54:20;;;;;;;;;;;;;;;;;;5124432;28;20371;-58
2022/11/07 12:56:46;;;;;;;;;;;;;;;;;;5122514;28;19923;-58
2022/11/07 12:59:19;;;;;;;;;;;;;;;;;;5123963;27;19920;-58
2022/11/07 13:01:51;;;;;;;;;;;;;;;;;;5122611;27;19924;-59
2022/11/07 13:04:36;;;;;;;;;;;;;;;;;;5126187;27;19916;-58
2022/11/07 13:07:01;;;;;;;;;;;;;;;;;;5124166;27;19920;-58
2022/11/07 13:09:51;;;;;;;;;;;;;;;;;;5125386;28;20484;-58
2022/11/07 13:12:25;;;;;;;;;;;;;;;;;;5121464;28;19963;-59
2022/11/07 13:14:50;;;;;;;;;;;;;;;;;;5125262;27;20002;-59
2022/11/07 13:17:23;;;;;;;;;;;;;;;;;;5118934;28;20011;-60
2022/11/07 13:19:58;;;;;;;;;;;;;;;;;;5111233;28;19930;-60
2022/11/07 13:22:31;;;;;;;;;;;;;;;;;;5110132;28;19924;-58
2022/11/07 13:25:11;;;;;;;;;;;;;;;;;;5112046;27;19916;-58
2022/11/07 13:27:37;;;;;;;;;;;;;;;;;;5111239;28;20003;-59
2022/11/07 13:30:09;;;;;;;;;;;;;;;;;;5111655;27;19915;-59
2022/11/07 13:32:37;;;;;;;;;;;;;;;;;;5109683;28;19941;-59
2022/11/07 13:35:06;;;;;;;;;;;;;;;;;;5112122;27;19939;-59
2022/11/07 13:37:33;;;;;;;;;;;;;;;;;;5111100;27;20393;-59
2022/11/07 13:40:02;;;;;;;;;;;;;;;;;;5111735;28;19927;-59
2022/11/07 13:42:30;;;;;;;;;;;;;;;;;;5110643;28;19923;-59
2022/11/07 13:44:57;;;;;;;;;;;;;;;;;;5110604;28;19951;-59
2022/11/07 13:47:25;;;;;;;;;;;;;;;;;;5105369;28;19980;-59
2022/11/07 13:49:50;;;;;;;;;;;;;;;;;;5110209;28;19976;-59
2022/11/07 13:52:22;;;;;;;;;;;;;;;;;;5110084;27;20338;-59
2022/11/07 13:54:59;;;;;;;;;;;;;;;;;;5111182;28;19942;-59
2022/11/07 13:57:27;;;;;;;;;;;;;;;;;;5107381;28;20404;-59
2022/11/07 13:59:59;;;;;;;;;;;;;;;;;;5108294;28;19923;-58
2022/11/07 14:02:25;;;;;;;;;;;;;;;;;;5109275;28;19951;-58
2022/11/07 14:04:52;;;;;;;;;;;;;;;;;;5110863;28;20442;-58
2022/11/07 14:07:18;;;;;;;;;;;;;;;;;;5109800;27;19945;-59
2022/11/07 14:09:43;;;;;;;;;;;;;;;;;;5112120;27;19920;-58
2022/11/07 14:12:16;;;;;;;;;;;;;;;;;;5109563;28;19972;-57
2022/11/07 14:14:41;;;;;;;;;;;;;;;;;;5108660;28;19922;-57
2022/11/07 14:17:12;;;;;;;;;;;;;;;;;;5109630;28;19920;-57
2022/11/07 14:19:37;;;;;;;;;;;;;;;;;;5109747;27;20003;-59
2022/11/07 14:22:02;;;;;;;;;;;;;;;;;;5108427;28;20445;-60
2022/11/07 14:24:31;;;;;;;;;;;;;;;;;;5108320;27;20010;-59
2022/11/07 14:26:58;;;;;;;;;;;;;;;;;;5108983;28;19967;-57
2022/11/07 14:29:23;;;;;;;;;;;;;;;;;;5107526;28;19911;-59
2022/11/07 14:31:49;;;;;;;;;;;;;;;;;;5109590;28;19919;-57
2022/11/07 14:34:19;;;;;;;;;;;;;;;;;;5107712;27;20424;-54
2022/11/07 14:36:55;;;;;;;;;;;;;;;;;;5106987;28;20312;-59
2022/11/07 14:39:21;;;;;;;;;;;;;;;;;;5106011;28;19923;-60
2022/11/07 14:41:46;;;;;;;;;;;;;;;;;;5106822;28;19922;-59
2022/11/07 14:44:13;;;;;;;;;;;;;;;;;;5108811;28;19994;-59
2022/11/07 14:46:38;;;;;;;;;;;;;;;;;;5109004;28;19924;-59
2022/11/07 14:49:04;;;;;;;;;;;;;;;;;;5109961;27;20385;-59
2022/11/07 14:51:29;;;;;;;;;;;;;;;;;;5109013;28;19964;-59
2022/11/07 14:54:05;;;;;;;;;;;;;;;;;;5109180;28;19927;-59
2022/11/07 14:56:33;;;;;;;;;;;;;;;;;;5108762;28;19915;-59
2022/11/07 14:58:59;;;;;;;;;;;;;;;;;;5107207;28;19927;-59
2022/11/07 15:01:24;;;;;;;;;;;;;;;;;;5106923;28;19928;-59
2022/11/07 15:04:00;;;;;;;;;;;;;;;;;;5101391;28;20302;-61
2022/11/07 15:06:32;;;;;;;;;;;;;;;;;;5100441;28;20325;-61
2022/11/07 15:09:02;;;;;;;;;;;;;;;;;;5109131;28;19916;-60
2022/11/07 15:11:29;;;;;;;;;;;;;;;;;;5109745;28;20339;-60
2022/11/07 15:13:56;;;;;;;;;;;;;;;;;;5111316;27;20364;-61
2022/11/07 15:16:21;;;;;;;;;;;;;;;;;;5109469;27;19923;-60
2022/11/07 15:18:56;;;;;;;;;;;;;;;;;;5109036;28;19915;-59
2022/11/07 15:21:31;;;;;;;;;;;;;;;;;;5107734;28;20010;-59
2022/11/07 15:23:57;;;;;;;;;;;;;;;;;;5108597;28;19957;-59
2022/11/07 15:26:26;;;;;;;;;;;;;;;;;;5105491;28;19924;-59
2022/11/07 15:28:52;;;;;;;;;;;;;;;;;;5102230;28;20373;-59
2022/11/07 15:31:20;;;;;;;;;;;;;;;;;;5105054;28;19923;-59
2022/11/07 15:33:45;;;;;;;;;;;;;;;;;;5104566;28;19916;-59
2022/11/07 15:36:12;;;;;;;;;;;;;;;;;;5108403;28;20313;-59
2022/11/07 15:38:37;;;;;;;;;;;;;;;;;;5106049;28;19922;-59
2022/11/07 15:41:02;;;;;;;;;;;;;;;;;;5106361;28;19916;-55
2022/11/07 15:43:28;;;;;;;;;;;;;;;;;;5100691;27;19920;-56
2022/11/07 15:45:55;;;;;;;;;;;;;;;;;;5103158;28;19931;-55
2022/11/07 15:48:21;;;;;;;;;;;;;;;;;;5109709;28;19916;-55
2022/11/07 15:50:47;;;;;;;;;;;;;;;;;;5106578;28;20105;-56
2022/11/07 15:53:26;;;;;;;;;;;;;;;;;;5104550;28;19916;-55
2022/11/07 15:55:52;;;;;;;;;;;;;;;;;;5103214;28;19959;-55
2022/11/07 15:58:19;;;;;;;;;;;;;;;;;;5105413;28;20337;-59
2022/11/07 16:00:44;;;;;;;;;;;;;;;;;;5103080;28;20352;-58
2022/11/07 16:03:14;;;;;;;;;;;;;;;;;;5108074;28;19947;-59
2022/11/07 16:05:40;;;;;;;;;;;;;;;;;;5107694;28;19969;-59
2022/11/07 16:08:07;;;;;;;;;;;;;;;;;;5107811;28;20393;-59
2022/11/07 16:10:33;;;;;;;;;;;;;;;;;;5105917;28;19920;-59
2022/11/07 16:12:58;;;;;;;;;;;;;;;;;;5103482;28;19930;-59
2022/11/07 16:15:24;;;;;;;;;;;;;;;;;;5108497;28;19939;-59
2022/11/07 16:17:49;;;;;;;;;;;;;;;;;;5106595;28;19922;-59
2022/11/07 16:20:16;;;;;;;;;;;;;;;;;;5107203;28;20339;-59
2022/11/07 16:22:44;;;;;;;;;;;;;;;;;;5103821;28;19923;-59
2022/11/07 16:25:13;;;;;;;;;;;;;;;;;;5107715;28;20417;-59
2022/11/07 16:27:41;;;;;;;;;;;;;;;;;;5107235;28;20346;-59
2022/11/07 16:30:12;;;;;;;;;;;;;;;;;;5107285;28;19916;-59
2022/11/07 16:32:38;;;;;;;;;;;;;;;;;;5107975;28;19919;-58
2022/11/07 16:35:03;;;;;;;;;;;;;;;;;;5107118;28;19957;-58
2022/11/07 16:37:28;;;;;;;;;;;;;;;;;;5108307;28;20407;-58
2022/11/07 16:39:54;;;;;;;;;;;;;;;;;;5106108;28;20024;-58
2022/11/07 16:42:19;;;;;;;;;;;;;;;;;;5106030;28;19969;-58
2022/11/07 16:44:44;;;;;;;;;;;;;;;;;;5108200;28;20002;-59
2022/11/07 16:47:13;;;;;;;;;;;;;;;;;;5106797;28;19923;-58
2022/11/07 16:49:38;;;;;;;;;;;;;;;;;;5105585;28;20006;-58
2022/11/07 16:52:04;;;;;;;;;;;;;;;;;;5105642;28;20019;-58
2022/11/07 16:54:29;;;;;;;;;;;;;;;;;;5108626;28;19923;-58
2022/11/07 16:56:55;;;;;;;;;;;;;;;;;;5108125;27;19977;-57
2022/11/07 16:59:21;;;;;;;;;;;;;;;;;;5100471;28;19923;-58